AGRSOR2 / XX258 7700 Squawk Report (23rd of July, 2018)

Aircraft HAWK Reg No. XX258 Age 39 years old
Model Hawk Jet engine 1 First flight 19-04-79
Registered N/A Rollout N/A Delivered 06-06-79
Construction No. 312094 Line No. N/A Series T.1A
ADSHEX 43C42D Airline name Royal Air Force Owner N/A
Airfield based Leeming~Yorks~G First tracked 2011-04-04 12:58:02

Flight history for XX258

Route Flight No Date Playback
???? N/A 2018-11-13 12:40:00
???? N/A 2018-11-08 17:18:00
???? N/A 2018-11-08 14:43:00
???? N/A 2018-11-07 12:16:00
???? N/A 2018-11-06 17:59:00
???? N/A 2018-11-06 15:47:00
???? N/A 2018-11-06 12:32:00
???? N/A 2018-10-31 13:02:00
???? N/A 2018-10-29 17:26:00
???? N/A 2018-10-29 12:33:00
???? N/A 2018-10-26 13:53:00
???? N/A 2018-10-26 11:00:00
???? N/A 2018-10-25 12:59:00
???? N/A 2018-10-24 15:50:00
???? N/A 2018-10-22 13:54:00
???? N/A 2018-10-19 14:20:00
???? N/A 2018-10-19 10:57:00
???? N/A 2018-10-18 11:10:00
???? N/A 2018-09-21 12:26:00
???? N/A 2018-09-21 10:24:00
Time Lat Lon Altitude Heading Speed Vertical Rate
2018-07-23 14:09:42 GMT 56.474689 -1.104627 15,500 263 298 -840
2018-07-23 14:09:42 GMT 56.474689 -1.104627 18,800 263 298 -840
2018-07-23 14:09:25 GMT 56.477253 -1.065234 19,300 265 248 -1080
2018-07-23 14:09:09 GMT 56.479267 -1.029322 19,500 265 254 -840
2018-07-23 14:08:32 GMT 56.483292 -0.950443 20,300 264 280 -240
2018-07-23 14:08:22 GMT 56.485188 -0.924047 20,300 266 250 -540
2018-07-23 14:08:06 GMT 56.486313 -0.890501 20,500 268 252 -480
2018-07-23 14:07:56 GMT 56.486595 -0.867031 20,600 267 248 -420
2018-07-23 14:07:30 GMT 56.487881 -0.813088 20,800 263 303 -420
2018-07-23 14:07:18 GMT 56.489475 -0.785048 20,900 265 283 -960
2018-07-23 14:07:04 GMT 56.490517 -0.754092 21,000 266 289 -1740
2018-07-23 14:06:52 GMT 56.491516 -0.727101 21,200 267 281 -1200
2018-07-23 14:06:42 GMT 56.492390 -0.700760 21,400 266 279 -1200
2018-07-23 14:06:32 GMT 56.493099 -0.677616 21,700 268 282 -1320
2018-07-23 14:06:22 GMT 56.493816 -0.653927 21,900 274 286
2018-07-23 14:04:04 GMT 56.501919 -0.328211 24,800 274 286
2018-07-23 14:03:36 GMT 56.498886 -0.262421 25,500
We lost coverage of the aircraft here for a total of 51 minutes
2018-07-23 13:12:28 GMT 55.824413 0.079654 28,200 23 430 0
2018-07-23 13:12:28 GMT 55.824413 0.079654 28,200 26 440 0
2018-07-23 13:12:13 GMT 55.799152 0.061118 28,100 25 421 0
2018-07-23 13:12:03 GMT 55.765717 0.037508 28,100 26 422 0
2018-07-23 13:11:53 GMT 55.750683 0.027294 28,000 26 422 0
2018-07-23 13:10:45 GMT 55.643990 -0.067396 28,100 28 414 0
2018-07-23 13:10:26 GMT 55.611713 -0.095796 28,100 29 414 0
2018-07-23 13:09:45 GMT 55.523785 -0.171490 28,100 31 399 0
2018-07-23 13:09:38 GMT 55.511913 -0.183592 28,100 31 399 0
2018-07-23 13:09:30 GMT 55.500416 -0.195436 28,100 31 399 0
2018-07-23 13:09:15 GMT 55.476582 -0.219469 28,000 31 399 0
2018-07-23 13:08:15 GMT 55.391850 -0.313127 28,000 31 399 0
2018-07-23 13:07:50 GMT 55.351543 -0.356778 28,000 31 419 0
2018-07-23 13:07:40 GMT 55.334412 -0.375424 28,000 32 347 0
2018-07-23 13:07:26 GMT 55.315350 -0.396380 28,000 31 446 0
2018-07-23 13:07:16 GMT 55.298004 -0.414515 28,000 31 447 0
2018-07-23 13:07:06 GMT 55.281811 -0.431939 28,000 31 469 0
2018-07-23 13:06:56 GMT 55.263405 -0.452117 28,000 31 409 0
2018-07-23 13:06:44 GMT 55.243973 -0.472852 28,000 33 456 0
2018-07-23 13:06:34 GMT 55.226303 -0.493216 28,000 30 442 -120
2018-07-23 13:06:03 GMT 55.171574 -0.551125 28,000 30 478 780
2018-07-23 13:05:52 GMT 55.151821 -0.569213 28,100 30 482 1080
2018-07-23 13:05:41 GMT 55.130013 -0.593389 28,100 33 517 1200
2018-07-23 13:05:28 GMT 55.103951 -0.623189 27,700 27 408 1260
2018-07-23 13:05:16 GMT 55.083790 -0.641409 27,300 26 435 1380
2018-07-23 13:05:05 GMT 55.062355 -0.662668 26,700 29 454 3120
2018-07-23 13:04:55 GMT 55.045071 -0.679428 26,400 29 476 3480
2018-07-23 13:04:44 GMT 55.023895 -0.700074 25,900 30 458 1500
2018-07-23 13:04:31 GMT 54.999588 -0.724524 25,200 29 477 2400
2018-07-23 13:04:21 GMT 54.980370 -0.743508 24,700 29 459 1980
2018-07-23 13:04:10 GMT 54.960041 -0.763683 24,300 29 479 1680
2018-07-23 13:03:58 GMT 54.937885 -0.785640 23,700 29 471 3000
2018-07-23 13:03:45 GMT 54.912842 -0.810630 23,300 30 477 3300
2018-07-23 13:03:33 GMT 54.889236 -0.834065 22,800 29 441 -1080
2018-07-23 13:03:22 GMT 54.869698 -0.853325 22,500 28 460 1200
2018-07-23 13:03:10 GMT 54.845982 -0.876223 22,100 31 444 2460
2018-07-23 13:03:00 GMT 54.828121 -0.893602 21,900 26 424 2640
2018-07-23 13:02:48 GMT 54.785278 -0.938665 21,300 32 417 2112
2018-07-23 13:02:35 GMT 54.762424 -0.963967 20,900 32 417 2112
2018-07-23 13:02:28 GMT 54.753998 -0.974537 20,500 32 417 2112
2018-07-23 13:02:18 GMT 54.735283 -0.997176 19,850 32 417 2112
2018-07-23 13:01:14 GMT 54.643341 -1.094489 17,700 26 424 2640
2018-07-23 13:01:00 GMT 54.618851 -1.115950 17,000 15 415 3600
2018-07-23 13:00:47 GMT 54.594845 -1.128508 16,300 13 421 4560
2018-07-23 13:00:31 GMT 54.564426 -1.141306 15,300 13 420 4080
2018-07-23 13:00:19 GMT 54.541714 -1.150679 14,200 13 424
2018-07-23 13:00:08 GMT 54.506897 -1.165133 13,700
2018-07-23 12:59:56 GMT 54.475616 -1.177868 13,200
2018-07-23 12:59:44 GMT 54.454014 -1.186773 12,700
2018-07-23 12:59:38 GMT 54.445122 -1.187023 12,200
2018-07-23 12:59:26 GMT 54.424500 -1.196012 11,800
2018-07-23 12:59:13 GMT 54.398293 -1.207913 11,400

Making use of Plane Finder data

You are free to use the raw flight data, aircraft information and images provided in this report for your own purposes provided the data is correctly attributed to Plane Finder. We ask that you please credit Plane Finder and link to planefinder.net in close proximity to the content.

Optionally one of the following logos (no smaller then 150x24px) can be used and must link to planefinder.net

Embedding the Plane Finder map

You are welcome to embed the Plane Finder playback map on your website to offer visitors a more interactive experience. We suggest using the following HTML code:

<iframe src="//planefinder.net/data/report/AGRSOR2-XX258-7700-squawk-2018-07-23/map" width="800" height="600" seamless="seamless"></iframe>

Where our data comes from

Plane Finder has a global network of data feeds and antenna radars that receive data broadcast directly from aircraft. The primary technologies used are ADS-B and MLAT. We also show feeds from the FAA and a FLARM glider feed.

Click here to find out more about the Plane Finder network.

How we collect our data